Terminal Aerodrome Forecast
Issued by NWS Shreveport, LA

Home | Current Version | Previous Version | Text Only | Print | Product List | Glossary On
Versions: 1 2 3 4 5 6 7 8 9 10 11 12 13
000
FTUS44 KSHV 252320
TAFSHV
TAF
KSHV 252320Z 2600/2624 18004KT P6SM SCT280
     FM261000 35005KT P6SM SCT040 BKN250
     FM261300 02009KT P6SM BKN015
     FM261600 02010KT P6SM BKN020
     FM261800 02012KT P6SM BKN030=

USA.gov is the U.S. government's official web portal to all federal, state and local government web resources and services.